Time;durP1;ratioP1;P1;durP2;ratioP2;P2;SDS_P1;SDS_P2;PMS_P1;PMS_P2;Temp;Humidity;BMP_temperature;BMP_pressure;BME280_temperature;BME280_humidity;BME280_pressure;Samples;Min_cycle;Max_cycle;Signal;HPM_P1;HPM_P2
2023/05/29 00:16:29;;;;;;;5.68;2.90;;;;;;;;;;6213547;23;20008;-96
2023/05/29 00:22:14;;;;;;;9.82;2.90;;;;;;;;;;6186099;23;20038;-96
2023/05/29 00:31:07;;;;;;;9.38;3.03;;;;;;;;;;6086411;23;20055;-95
2023/05/29 00:33:55;;;;;;;9.38;3.90;;;;;;;;;;6121653;23;20005;-96
2023/05/29 00:39:54;;;;;;;8.30;3.40;;;;;;;;;;6134169;23;20001;-96
2023/05/29 00:43:07;;;;;;;;;;;;;;;;;;;;;
2023/05/29 00:45:53;;;;;;;;;;;;;;;;;;6242099;22;20038;-95
2023/05/29 00:48:57;;;;;;;;;;;;;;;;;;;;;
2023/05/29 00:51:56;;;;;;;;;;;;;;;;;;;;;
2023/05/29 00:57:32;;;;;;;8.13;4.50;;;;;;;;;;6248562;22;20008;-96
2023/05/29 01:00:13;;;;;;;8.70;3.60;;;;;;;;;;6280374;22;20272;-95
2023/05/29 01:02:44;;;;;;;12.48;3.88;;;;;;;;;;6278920;22;20011;-96
2023/05/29 01:05:19;;;;;;;11.10;3.67;;;;;;;;;;6278663;22;20017;-95
2023/05/29 01:07:47;;;;;;;11.77;4.50;;;;;;;;;;6248878;22;20407;-96
2023/05/29 01:10:13;;;;;;;9.63;3.70;;;;;;;;;;6275052;22;20081;-94
2023/05/29 01:12:54;;;;;;;;;;;;;;;;;;;;;
2023/05/29 01:15:30;;;;;;;12.70;3.70;;;;;;;;;;6277387;22;20111;-93
2023/05/29 01:18:28;;;;;;;9.20;3.83;;;;;;;;;;6275566;22;20000;-94
2023/05/29 01:20:56;;;;;;;12.00;4.07;;;;;;;;;;6247525;22;20091;-94
2023/05/29 01:23:33;;;;;;;13.43;3.42;;;;;;;;;;6273370;22;20000;-96
2023/05/29 01:26:27;;;;;;;9.68;3.60;;;;;;;;;;6275078;22;20074;-96
2023/05/29 01:29:12;;;;;;;10.10;3.67;;;;;;;;;;6236047;22;20146;-93
2023/05/29 01:31:39;;;;;;;6.00;3.22;;;;;;;;;;6278495;22;20002;-96
2023/05/29 01:34:10;;;;;;;7.00;3.20;;;;;;;;;;6276186;22;20020;-96
2023/05/29 01:36:41;;;;;;;14.17;4.53;;;;;;;;;;6275578;22;20000;-96
2023/05/29 01:39:19;;;;;;;;;;;;;;;;;;;;;
2023/05/29 01:45:06;;;;;;;12.90;3.45;;;;;;;;;;6259748;22;19996;-96
2023/05/29 01:48:10;;;;;;;14.48;3.78;;;;;;;;;;6276961;22;20395;-96
2023/05/29 01:50:47;;;;;;;5.25;2.70;;;;;;;;;;6279068;22;19996;-95
2023/05/29 01:53:16;;;;;;;6.03;2.88;;;;;;;;;;6253465;22;20038;-96
2023/05/29 01:56:07;;;;;;;12.45;3.22;;;;;;;;;;6277169;22;20034;-96
2023/05/29 01:58:53;;;;;;;10.82;3.08;;;;;;;;;;6280083;22;20006;-94
2023/05/29 02:01:21;;;;;;;6.68;2.95;;;;;;;;;;6278921;22;20007;-96
2023/05/29 02:03:54;;;;;;;7.63;3.63;;;;;;;;;;6278214;22;20091;-96
2023/05/29 02:06:22;;;;;;;7.68;3.13;;;;;;;;;;6278620;22;20004;-96
2023/05/29 02:12:29;;;;;;;;;;;;;;;;;;;;;
2023/05/29 02:15:37;;;;;;;;;;;;;;;;;;;;;
2023/05/29 02:28:11;;;;;;;;;;;;;;;;;;;;;
2023/05/29 02:34:08;;;;;;;9.55;2.00;;;;;;;;;;6272059;22;20082;-96
2023/05/29 02:37:14;;;;;;;;;;;;;;;;;;;;;
2023/05/29 02:50:00;;;;;;;3.92;1.70;;;;;;;;;;5984049;24;20068;-96
2023/05/29 03:05:32;;;;;;;;;;;;;;;;;;;;;
2023/05/29 03:08:23;;;;;;;8.02;1.60;;;;;;;;;;5901987;24;21009;-96
2023/05/29 03:11:52;;;;;;;;;;;;;;;;;;;;;
2023/05/29 03:20:41;;;;;;;;;;;;;;;;;;;;;
2023/05/29 03:23:30;;;;;;;;;;;;;;;;;;;;;
2023/05/29 03:26:25;;;;;;;6.78;1.73;;;;;;;;;;6174766;23;20083;-95
2023/05/29 03:32:28;;;;;;;4.45;1.40;;;;;;;;;;6223390;22;20172;-96
2023/05/29 03:38:21;;;;;;;3.50;1.27;;;;;;;;;;6184900;23;20044;-96
2023/05/29 03:40:50;;;;;;;12.18;1.92;;;;;;;;;;6252535;22;20008;-96
2023/05/29 03:43:18;;;;;;;6.93;1.40;;;;;;;;;;6277336;22;20082;-95
2023/05/29 03:46:25;;;;;;;7.53;1.60;;;;;;;;;;6276653;22;20076;-96
2023/05/29 03:48:50;;;;;;;11.15;1.42;;;;;;;;;;6242129;22;20099;-94
2023/05/29 03:51:23;;;;;;;8.35;1.38;;;;;;;;;;6278621;22;20000;-95
2023/05/29 03:53:56;;;;;;;7.32;1.48;;;;;;;;;;6275745;22;20427;-96
2023/05/29 03:56:22;;;;;;;9.65;1.30;;;;;;;;;;6275952;22;20023;-95
2023/05/29 03:58:47;;;;;;;14.73;2.20;;;;;;;;;;6275373;22;20014;-95
2023/05/29 04:01:14;;;;;;;6.97;1.52;;;;;;;;;;6251883;22;20046;-95
2023/05/29 04:03:46;;;;;;;8.23;1.73;;;;;;;;;;6280477;22;20000;-95
2023/05/29 04:06:12;;;;;;;9.77;1.67;;;;;;;;;;6277452;22;20000;-95
2023/05/29 04:08:41;;;;;;;9.98;1.95;;;;;;;;;;6276197;22;20043;-96
2023/05/29 04:11:45;;;;;;;;;;;;;;;;;;;;;
2023/05/29 04:14:11;;;;;;;7.60;1.20;;;;;;;;;;6276089;22;20095;-96
2023/05/29 04:16:37;;;;;;;8.75;1.40;;;;;;;;;;6274109;22;20406;-95
2023/05/29 04:19:04;;;;;;;6.03;1.10;;;;;;;;;;6278485;22;20014;-96
2023/05/29 04:21:58;;;;;;;7.45;1.50;;;;;;;;;;6274891;22;20019;-96
2023/05/29 04:27:48;;;;;;;14.25;2.00;;;;;;;;;;6252596;22;20003;-96
2023/05/29 04:31:06;;;;;;;;;;;;;;;;;;;;;
2023/05/29 04:36:53;;;;;;;;;;;;;;;;;;;;;
2023/05/29 04:39:51;;;;;;;;;;;;;;;;;;;;;
2023/05/29 04:46:14;;;;;;;;;;;;;;;;;;;;;
2023/05/29 04:58:34;;;;;;;;;;;;;;;;;;;;;
2023/05/29 05:01:43;;;;;;;;;;;;;;;;;;;;;
2023/05/29 05:07:01;;;;;;;11.32;1.23;;;;;;;;;;6151550;23;20012;-95
2023/05/29 05:09:29;;;;;;;10.90;1.85;;;;;;;;;;6242046;22;20007;-96
2023/05/29 05:11:56;;;;;;;7.38;1.23;;;;;;;;;;6275920;22;20070;-95
2023/05/29 05:14:23;;;;;;;9.38;1.70;;;;;;;;;;6277113;22;20477;-95
2023/05/29 05:16:52;;;;;;;9.73;1.52;;;;;;;;;;6278917;22;20034;-95
2023/05/29 05:19:28;;;;;;;;;;;;;;;;;;;;;
2023/05/29 05:21:56;;;;;;;5.18;1.35;;;;;;;;;;6278871;22;20020;-96
2023/05/29 05:24:32;;;;;;;;;;;;;;;;;;;;;
2023/05/29 05:27:00;;;;;;;13.63;1.55;;;;;;;;;;6279208;22;20051;-96
2023/05/29 05:29:28;;;;;;;11.13;1.63;;;;;;;;;;6281053;22;20030;-96
2023/05/29 05:32:02;;;;;;;15.82;2.15;;;;;;;;;;6280234;22;20084;-95
2023/05/29 05:34:30;;;;;;;8.10;1.42;;;;;;;;;;6279573;22;20034;-96
2023/05/29 05:40:00;;;;;;;16.33;1.58;;;;;;;;;;6276792;22;20157;-95
2023/05/29 05:42:31;;;;;;;10.18;1.83;;;;;;;;;;6286375;22;20008;-95
2023/05/29 05:45:04;;;;;;;5.60;1.30;;;;;;;;;;6284989;22;20003;-96
2023/05/29 05:47:33;;;;;;;6.13;1.33;;;;;;;;;;6281330;22;19999;-96
2023/05/29 05:49:59;;;;;;;8.95;1.65;;;;;;;;;;6230677;22;20145;-96
2023/05/29 05:52:38;;;;;;;8.60;1.60;;;;;;;;;;6281750;22;20008;-96
2023/05/29 05:55:03;;;;;;;5.78;1.38;;;;;;;;;;6280588;22;20012;-95
2023/05/29 05:58:14;;;;;;;11.07;1.52;;;;;;;;;;6277655;22;20468;-96
2023/05/29 06:01:02;;;;;;;10.50;1.67;;;;;;;;;;6275767;22;20032;-96
2023/05/29 06:03:32;;;;;;;9.20;1.58;;;;;;;;;;6229465;22;20004;-96
2023/05/29 06:06:01;;;;;;;8.77;1.30;;;;;;;;;;6275952;22;20034;-96
2023/05/29 06:08:45;;;;;;;;;;;;;;;;;;;;;
2023/05/29 06:11:17;;;;;;;7.22;1.35;;;;;;;;;;6278707;22;20034;-95
2023/05/29 06:13:45;;;;;;;5.85;1.23;;;;;;;;;;6249455;22;20011;-96
2023/05/29 06:16:21;;;;;;;8.10;1.52;;;;;;;;;;6276046;22;20012;-96
2023/05/29 06:18:57;;;;;;;9.00;1.35;;;;;;;;;;6275111;22;20015;-96
2023/05/29 06:21:27;;;;;;;7.18;1.20;;;;;;;;;;6275886;22;20137;-95
2023/05/29 06:23:54;;;;;;;13.13;1.55;;;;;;;;;;6274537;22;20000;-96
2023/05/29 06:26:24;;;;;;;9.40;1.30;;;;;;;;;;6274245;22;20054;-96
2023/05/29 06:28:50;;;;;;;7.43;1.50;;;;;;;;;;6274513;22;20034;-96
2023/05/29 06:31:18;;;;;;;9.43;1.20;;;;;;;;;;6275119;22;20007;-96
2023/05/29 06:33:54;;;;;;;6.50;1.30;;;;;;;;;;6274948;22;20015;-96
2023/05/29 06:36:24;;;;;;;5.63;1.20;;;;;;;;;;6274722;22;20015;-95
2023/05/29 06:38:50;;;;;;;9.30;0.98;;;;;;;;;;6250206;22;20003;-95
2023/05/29 06:41:16;;;;;;;12.82;1.70;;;;;;;;;;6273462;22;20062;-95
2023/05/29 06:43:41;;;;;;;4.82;1.17;;;;;;;;;;6275434;22;19999;-95
2023/05/29 06:46:07;;;;;;;9.98;1.58;;;;;;;;;;6275556;22;20004;-95
2023/05/29 06:48:33;;;;;;;8.30;1.42;;;;;;;;;;6273166;22;20086;-96
2023/05/29 06:51:01;;;;;;;13.93;1.63;;;;;;;;;;6274110;22;20015;-96
2023/05/29 06:53:29;;;;;;;6.28;1.38;;;;;;;;;;6274528;22;20108;-95
2023/05/29 06:55:54;;;;;;;10.45;1.13;;;;;;;;;;6250152;22;20022;-95
2023/05/29 07:04:46;;;;;;;7.05;1.20;;;;;;;;;;6264127;22;20011;-96
2023/05/29 07:07:49;;;;;;;;;;;;;;;;;;;;;
2023/05/29 07:10:36;;;;;;;8.75;1.38;;;;;;;;;;6278246;22;20095;-96
2023/05/29 07:13:26;;;;;;;9.32;1.80;;;;;;;;;;6274510;22;20067;-96
2023/05/29 07:16:04;;;;;;;;;;;;;;;;;;;;;
2023/05/29 07:18:32;;;;;;;6.75;1.45;;;;;;;;;;6274310;22;20087;-95
2023/05/29 07:27:02;;;;;;;6.68;1.33;;;;;;;;;;6278079;22;20070;-95
2023/05/29 07:29:27;;;;;;;7.03;1.05;;;;;;;;;;6278059;22;20415;-95
2023/05/29 07:32:00;;;;;;;8.68;1.75;;;;;;;;;;6275346;22;20513;-94
2023/05/29 07:34:35;;;;;;;;;;;;;;;;;;;;;
2023/05/29 07:37:11;;;;;;;5.18;1.38;;;;;;;;;;6276040;22;20023;-95
2023/05/29 07:39:42;;;;;;;6.93;1.23;;;;;;;;;;6275502;22;20050;-96
2023/05/29 07:42:14;;;;;;;8.52;1.40;;;;;;;;;;6278416;22;20042;-96
2023/05/29 07:44:45;;;;;;;5.55;1.38;;;;;;;;;;6279612;22;20094;-96
2023/05/29 07:47:13;;;;;;;10.07;1.40;;;;;;;;;;6278923;22;20059;-95
2023/05/29 07:49:53;;;;;;;;;;;;;;;;;;;;;
2023/05/29 07:52:22;;;;;;;5.60;1.13;;;;;;;;;;6279328;22;20083;-96
2023/05/29 07:54:58;;;;;;;10.65;1.45;;;;;;;;;;6277948;22;20019;-95
2023/05/29 07:57:28;;;;;;;10.05;1.50;;;;;;;;;;6277404;22;20065;-94
2023/05/29 08:00:28;;;;;;;8.00;1.48;;;;;;;;;;6278094;22;19992;-95
2023/05/29 08:03:02;;;;;;;9.48;1.90;;;;;;;;;;6280255;22;20011;-96
2023/05/29 08:05:30;;;;;;;9.93;1.42;;;;;;;;;;6279199;22;20006;-96
2023/05/29 08:08:06;;;;;;;;;;;;;;;;;;;;;
2023/05/29 08:10:32;;;;;;;5.38;1.40;;;;;;;;;;6253931;22;20083;-96
2023/05/29 08:12:57;;;;;;;6.93;1.17;;;;;;;;;;6279318;22;20026;-94
2023/05/29 08:15:34;;;;;;;6.55;1.30;;;;;;;;;;6251994;22;20015;-95
2023/05/29 08:18:00;;;;;;;6.78;1.38;;;;;;;;;;6278245;22;20248;-94
2023/05/29 08:20:28;;;;;;;6.50;1.17;;;;;;;;;;6276155;22;20058;-96
2023/05/29 08:22:56;;;;;;;11.15;1.85;;;;;;;;;;6277105;22;20002;-95
2023/05/29 08:25:43;;;;;;;11.20;1.50;;;;;;;;;;6279770;22;20008;-95
2023/05/29 08:28:11;;;;;;;7.15;1.70;;;;;;;;;;6277435;22;19995;-95
2023/05/29 08:30:37;;;;;;;8.18;1.75;;;;;;;;;;6277301;22;20541;-96
2023/05/29 08:33:09;;;;;;;3.75;1.00;;;;;;;;;;6277492;22;19995;-94
2023/05/29 08:35:44;;;;;;;12.43;1.88;;;;;;;;;;6275526;22;20019;-95
2023/05/29 08:39:07;;;;;;;;;;;;;;;;;;;;;
2023/05/29 08:48:14;;;;;;;;;;;;;;;;;;;;;
2023/05/29 08:54:17;;;;;;;;;;;;;;;;;;;;;
2023/05/29 09:00:40;;;;;;;;;;;;;;;;;;;;;
2023/05/29 09:06:45;;;;;;;;;;;;;;;;;;;;;
2023/05/29 09:25:21;;;;;;;;;;;;;;;;;;;;;
2023/05/29 09:30:43;;;;;;;8.60;1.92;;;;;;;;;;6290730;22;19898;-96
2023/05/29 09:33:57;;;;;;;8.25;1.40;;;;;;;;;;6302761;22;20007;-95
2023/05/29 09:45:55;;;;;;;21.50;1.85;;;;;;;;;;6226846;23;20025;-96
2023/05/29 09:48:37;;;;;;;13.32;1.45;;;;;;;;;;6240346;23;20004;-96
2023/05/29 09:54:23;;;;;;;7.55;1.50;;;;;;;;;;6230713;23;20032;-96
2023/05/29 09:57:25;;;;;;;4.22;1.13;;;;;;;;;;6245061;23;20020;-96
2023/05/29 10:06:11;;;;;;;4.78;1.13;;;;;;;;;;6245161;23;20023;-96
2023/05/29 10:08:55;;;;;;;;;;;;;;;;;;;;;
2023/05/29 10:31:26;;;;;;;;;;;;;;;;;;;;;
2023/05/29 10:47:08;;;;;;;8.27;2.20;;;;;;;;;;6012779;23;20046;-96
2023/05/29 10:49:48;;;;;;;;;;;;;;;;;;;;;
2023/05/29 11:54:22;;;;;;;8.73;1.63;;;;;;;;;;6334722;22;20019;-94
2023/05/29 11:57:24;;;;;;;;;;;;;;;;;;;;;
2023/05/29 12:00:25;;;;;;;;;;;;;;;;;;;;;
2023/05/29 12:03:35;;;;;;;;;;;;;;;;;;;;;
2023/05/29 12:06:19;;;;;;;5.47;1.25;;;;;;;;;;6302678;22;20022;-95
2023/05/29 12:12:21;;;;;;;;;;;;;;;;;;;;;
2023/05/29 12:18:14;;;;;;;;;;;;;;;;;;;;;
2023/05/29 12:23:43;;;;;;;3.97;1.50;;;;;;;;;;6282007;22;20033;-96
2023/05/29 12:26:30;;;;;;;4.50;1.17;;;;;;;;;;6277750;22;20010;-94
2023/05/29 12:30:08;;;;;;;;;;;;;;;;;;;;;
2023/05/29 12:32:45;;;;;;;6.05;1.30;;;;;;;;;;6289795;22;20007;-95
2023/05/29 12:35:26;;;;;;;;;;;;;;;;;;;;;
2023/05/29 12:38:20;;;;;;;5.78;1.58;;;;;;;;;;6305160;22;20074;-95
2023/05/29 12:47:55;;;;;;;5.47;1.42;;;;;;;;;;6277465;22;20060;-96
2023/05/29 12:50:45;;;;;;;8.10;1.50;;;;;;;;;;6241857;22;20027;-95
2023/05/29 13:05:01;;;;;;;4.45;0.90;;;;;;;;;;6303112;22;20434;-96
2023/05/29 13:07:36;;;;;;;4.95;1.48;;;;;;;;;;6275945;22;20069;-95
2023/05/29 13:10:30;;;;;;;8.85;1.42;;;;;;;;;;6279002;22;20011;-96
2023/05/29 13:13:38;;;;;;;1.85;0.88;;;;;;;;;;6274010;22;20071;-96
2023/05/29 13:19:33;;;;;;;;;;;;;;;;;;;;;
2023/05/29 13:22:35;;;;;;;7.07;1.50;;;;;;;;;;6307094;22;20078;-96
2023/05/29 13:34:53;;;;;;;8.30;1.73;;;;;;;;;;6269470;22;20034;-96
2023/05/29 13:37:24;;;;;;;5.28;1.08;;;;;;;;;;6281108;22;20022;-96
2023/05/29 13:59:27;;;;;;;10.40;1.83;;;;;;;;;;6128417;23;20060;-96
2023/05/29 14:01:57;;;;;;;7.75;1.65;;;;;;;;;;6204519;23;19997;-95
2023/05/29 14:04:25;;;;;;;6.00;1.48;;;;;;;;;;6189149;23;20013;-95
2023/05/29 14:06:51;;;;;;;13.20;1.83;;;;;;;;;;6204660;23;20008;-95
2023/05/29 14:09:27;;;;;;;5.20;1.60;;;;;;;;;;6228373;22;20429;-95
2023/05/29 14:12:02;;;;;;;5.50;1.42;;;;;;;;;;6282689;22;20029;-95
2023/05/29 14:14:33;;;;;;;9.68;1.70;;;;;;;;;;6282563;22;20037;-96
2023/05/29 14:17:10;;;;;;;8.98;1.55;;;;;;;;;;6282808;22;20006;-96
2023/05/29 14:19:38;;;;;;;7.05;1.42;;;;;;;;;;6281084;22;20050;-96
2023/05/29 14:22:05;;;;;;;10.80;1.55;;;;;;;;;;6309936;22;20010;-96
2023/05/29 14:24:36;;;;;;;11.50;1.45;;;;;;;;;;6284803;22;20078;-97
2023/05/29 14:27:04;;;;;;;3.42;1.15;;;;;;;;;;6281227;22;20015;-96
2023/05/29 14:29:34;;;;;;;10.23;1.58;;;;;;;;;;6254414;22;20071;-95
2023/05/29 14:32:05;;;;;;;4.70;1.52;;;;;;;;;;6283020;22;20086;-95
2023/05/29 14:38:08;;;;;;;7.68;1.20;;;;;;;;;;6153834;23;20088;-95
2023/05/29 14:40:41;;;;;;;8.43;1.20;;;;;;;;;;6130286;23;19993;-96
2023/05/29 14:43:19;;;;;;;9.32;1.55;;;;;;;;;;6129177;23;20050;-96
2023/05/29 14:45:54;;;;;;;4.93;1.00;;;;;;;;;;6129543;23;20013;-95
2023/05/29 14:48:28;;;;;;;4.70;1.27;;;;;;;;;;6136355;22;20532;-95
2023/05/29 14:51:29;;;;;;;6.95;1.65;;;;;;;;;;6261346;22;19999;-96
2023/05/29 14:53:57;;;;;;;3.05;1.05;;;;;;;;;;6261664;22;20013;-96
2023/05/29 14:56:40;;;;;;;5.10;1.33;;;;;;;;;;6282102;22;20003;-95
2023/05/29 14:59:21;;;;;;;;;;;;;;;;;;;;;
2023/05/29 15:01:59;;;;;;;7.07;1.60;;;;;;;;;;6306816;22;20055;-95
2023/05/29 15:04:55;;;;;;;;;;;;;;;;;;;;;
2023/05/29 15:07:30;;;;;;;5.85;1.42;;;;;;;;;;6307120;22;20155;-95
2023/05/29 15:10:32;;;;;;;;;;;;;;;;;;;;;
2023/05/29 15:13:25;;;;;;;4.65;1.05;;;;;;;;;;6303916;22;20062;-95
2023/05/29 15:16:19;;;;;;;3.85;0.93;;;;;;;;;;6282413;22;20015;-96
2023/05/29 15:18:55;;;;;;;6.03;1.60;;;;;;;;;;6280045;22;20408;-95
2023/05/29 15:25:02;;;;;;;;;;;;;;;;;;;;;
2023/05/29 15:37:13;;;;;;;8.05;1.40;;;;;;;;;;6200957;23;20012;-96
2023/05/29 16:14:04;;;;;;;3.97;0.90;;;;;;;;;;6203972;23;20072;-96
2023/05/29 18:18:39;;;;;;;6.15;1.25;;;;;;;;;;6276570;22;20027;-96
2023/05/29 18:21:09;;;;;;;4.82;1.35;;;;;;;;;;6293546;22;20004;-95
2023/05/29 18:23:43;;;;;;;5.97;1.58;;;;;;;;;;6294372;22;19999;-95
2023/05/29 18:26:15;;;;;;;4.88;1.20;;;;;;;;;;6293461;22;19999;-95
2023/05/29 18:28:47;;;;;;;5.78;1.42;;;;;;;;;;6295865;22;20000;-95
2023/05/29 18:31:12;;;;;;;6.90;1.60;;;;;;;;;;6293601;22;20004;-94
2023/05/29 18:33:41;;;;;;;5.00;1.42;;;;;;;;;;6297276;22;20010;-95
2023/05/29 18:36:18;;;;;;;8.75;1.40;;;;;;;;;;6270462;22;20018;-94
2023/05/29 18:38:53;;;;;;;8.77;1.00;;;;;;;;;;6295235;22;20053;-95
2023/05/29 18:41:33;;;;;;;2.70;0.85;;;;;;;;;;6296884;22;20038;-95
2023/05/29 18:44:01;;;;;;;3.20;0.93;;;;;;;;;;6295716;22;20037;-96
2023/05/29 18:46:54;;;;;;;;;;;;;;;;;;;;;
2023/05/29 18:52:28;;;;;;;6.78;1.60;;;;;;;;;;6273235;22;19991;-95
2023/05/29 18:54:57;;;;;;;9.07;1.70;;;;;;;;;;6292546;22;20315;-94
2023/05/29 19:00:35;;;;;;;;;;;;;;;;;;;;;
2023/05/29 19:03:32;;;;;;;5.22;1.10;;;;;;;;;;6290464;22;20000;-94
2023/05/29 19:06:25;;;;;;;6.55;1.67;;;;;;;;;;6296891;22;20018;-95
2023/05/29 19:09:12;;;;;;;7.15;1.38;;;;;;;;;;6292046;22;19999;-94
2023/05/29 19:11:47;;;;;;;8.50;1.33;;;;;;;;;;6293337;22;20111;-95
2023/05/29 19:17:38;;;;;;;8.00;1.38;;;;;;;;;;6298123;22;20089;-96
2023/05/29 19:20:09;;;;;;;4.97;1.30;;;;;;;;;;6271278;22;19991;-95
2023/05/29 19:22:41;;;;;;;7.57;1.83;;;;;;;;;;6298067;22;20019;-95
2023/05/29 19:25:46;;;;;;;6.78;1.30;;;;;;;;;;6271522;22;19999;-95
2023/05/29 19:28:14;;;;;;;4.35;1.25;;;;;;;;;;6267925;22;20063;-94
2023/05/29 19:30:39;;;;;;;7.40;1.67;;;;;;;;;;6270743;22;20045;-94
2023/05/29 19:33:14;;;;;;;10.25;1.20;;;;;;;;;;6299705;22;20003;-95
2023/05/29 19:42:14;;;;;;;7.38;1.90;;;;;;;;;;6200213;23;20005;-96
2023/05/29 19:48:30;;;;;;;;;;;;;;;;;;;;;
2023/05/29 20:24:14;;;;;;;;;;;;;;;;;;;;;
2023/05/29 20:27:43;;;;;;;5.43;1.10;;;;;;;;;;6299288;22;20084;-95
2023/05/29 20:29:47;;;;;;;5.68;1.50;;;;;;;;;;6276676;22;20004;-95
